createdAt,value
2022-07-31T00:00:35.564Z,21.43000031
2022-07-31T00:01:30.846Z,21.46999931
2022-07-31T00:02:34.948Z,21.45999908
2022-07-31T00:05:14.554Z,21.62999916
2022-07-31T00:07:33.548Z,22.13999939
2022-07-31T00:09:53.034Z,22.17000008
2022-07-31T00:09:53.331Z,22.17000008
2022-07-31T00:09:53.885Z,22.17000008
2022-07-31T00:10:16.779Z,22.11000061
2022-07-31T00:11:17.754Z,22.09000015
2022-07-31T00:12:12.463Z,22.04999924
2022-07-31T00:13:10.649Z,21.97999954
2022-07-31T00:14:09.396Z,21.90999985
2022-07-31T00:15:03.750Z,21.82999992
2022-07-31T00:16:01.327Z,21.79000092
2022-07-31T00:17:00.110Z,21.77000046
2022-07-31T00:17:53.142Z,21.72999954
2022-07-31T00:18:53.126Z,21.69000053
2022-07-31T00:19:46.734Z,21.64999962
2022-07-31T00:20:48.319Z,21.61000061
2022-07-31T00:21:43.687Z,21.56999969
2022-07-31T00:22:42.503Z,21.54999924
2022-07-31T00:24:38.917Z,21.54000092
2022-07-31T00:25:33.265Z,21.48999977
2022-07-31T00:26:31.086Z,21.47999954
2022-07-31T00:27:15.664Z,21.45000076
2022-07-31T00:29:20.731Z,21.39999962
2022-07-31T00:30:11.801Z,21.37000084
2022-07-31T00:31:12.560Z,21.34000015
2022-07-31T00:32:04.025Z,21.31999969
2022-07-31T00:33:57.619Z,21.37000084
2022-07-31T00:34:55.957Z,21.35000038
2022-07-31T00:35:51.364Z,21.32999992
2022-07-31T00:36:50.589Z,21.29000092
2022-07-31T00:37:46.936Z,21.26000023
2022-07-31T00:38:40.113Z,21.25
2022-07-31T00:39:39.319Z,21.21999931
2022-07-31T00:40:36.442Z,21.19000053
2022-07-31T00:41:36.512Z,21.15999985
2022-07-31T00:42:34.226Z,21.12000084
2022-07-31T00:44:19.466Z,21.18000031
2022-07-31T00:44:59.177Z,21.20000076
2022-07-31T00:45:59.232Z,21.21999931
2022-07-31T00:47:00.037Z,21.20000076
2022-07-31T00:48:54.346Z,21.15999985
2022-07-31T00:49:55.579Z,21.13999939
2022-07-31T00:50:50.326Z,21.10000038
2022-07-31T00:51:49.815Z,21.05999947
2022-07-31T00:52:48.818Z,21.03000069
2022-07-31T00:53:54.760Z,21.01000023
2022-07-31T00:54:53.947Z,20.95999908
2022-07-31T00:55:51.541Z,20.94000053
2022-07-31T00:56:48.199Z,20.92000008
2022-07-31T00:57:47.159Z,20.93000031
2022-07-31T00:58:46.291Z,20.90999985
2022-07-31T00:59:51.214Z,20.87000084
2022-07-31T01:00:50.367Z,20.84000015
2022-07-31T01:01:45.799Z,20.82999992
2022-07-31T01:02:51.922Z,20.82999992
2022-07-31T01:04:46.661Z,20.79000092
2022-07-31T01:05:42.145Z,20.77000046
2022-07-31T01:06:45.490Z,20.75
2022-07-31T01:07:41.433Z,20.72999954
2022-07-31T01:08:43.805Z,20.73999977
2022-07-31T01:09:43.648Z,20.69000053
2022-07-31T01:10:42.191Z,20.67000008
2022-07-31T01:11:45.151Z,20.65999985
2022-07-31T01:12:37.874Z,20.64999962
2022-07-31T01:13:41.416Z,20.67000008
2022-07-31T01:14:33.135Z,20.65999985
2022-07-31T01:15:38.637Z,20.62999916
2022-07-31T01:16:33.052Z,20.62000084
2022-07-31T01:17:37.233Z,20.63999939
2022-07-31T01:19:38.256Z,20.68000031
2022-07-31T01:19:42.231Z,20.68000031
2022-07-31T01:20:29.060Z,20.69000053
2022-07-31T01:21:35.873Z,20.71999931
2022-07-31T01:22:39.432Z,20.69000053
2022-07-31T01:23:42.501Z,20.68000031
2022-07-31T01:23:50.980Z,20.68000031
2022-07-31T01:23:55.018Z,20.68000031
2022-07-31T01:25:41.600Z,20.72999954
2022-07-31T01:26:23.496Z,20.76000023
2022-07-31T01:27:22.232Z,20.78000069
2022-07-31T01:28:26.111Z,20.75
2022-07-31T01:29:25.115Z,20.70000076
2022-07-31T01:30:36.600Z,20.65999985
2022-07-31T01:31:34.603Z,20.62999916
2022-07-31T01:32:33.781Z,20.59000015
2022-07-31T01:33:35.757Z,20.56999969
2022-07-31T01:34:33.594Z,20.53000069
2022-07-31T01:35:34.531Z,20.51000023
2022-07-31T01:36:35.804Z,20.5
2022-07-31T01:37:39.537Z,20.45999908
2022-07-31T01:38:37.463Z,20.47999954
2022-07-31T01:39:41.285Z,20.45000076
2022-07-31T01:40:39.668Z,20.43000031
2022-07-31T01:41:42.659Z,20.44000053
2022-07-31T01:42:40.484Z,20.43000031
2022-07-31T01:43:46.310Z,20.42000008
2022-07-31T01:44:40.511Z,20.40999985
2022-07-31T01:45:44.390Z,20.40999985
2022-07-31T01:46:44.072Z,20.39999962
2022-07-31T01:47:44.410Z,20.38999939
2022-07-31T01:49:44.104Z,20.37999916
2022-07-31T01:50:43.870Z,20.34000015
2022-07-31T01:51:43.266Z,20.34000015
2022-07-31T01:52:41.308Z,20.34000015
2022-07-31T01:53:43.095Z,20.35000038
2022-07-31T01:54:49.816Z,20.31999969
2022-07-31T01:56:02.086Z,20.29999924
2022-07-31T01:56:02.106Z,20.29999924
2022-07-31T01:56:02.172Z,20.29999924
2022-07-31T01:56:51.516Z,20.34000015
2022-07-31T01:57:54.338Z,20.40999985
2022-07-31T01:59:54.737Z,20.40999985
2022-07-31T02:00:58.509Z,20.38999939
2022-07-31T02:01:59.394Z,20.38999939
2022-07-31T02:03:42.821Z,20.37000084
2022-07-31T02:03:43.324Z,20.37000084
2022-07-31T02:03:43.765Z,20.37000084
2022-07-31T02:04:07.439Z,20.38999939
2022-07-31T02:05:11.618Z,20.47999954
2022-07-31T02:06:13.996Z,20.5
2022-07-31T02:07:10.639Z,20.47999954
2022-07-31T02:09:09.829Z,20.43000031
2022-07-31T02:10:13.891Z,20.40999985
2022-07-31T02:11:08.506Z,20.37000084
2022-07-31T02:12:09.530Z,20.37000084
2022-07-31T02:13:08.255Z,20.37000084
2022-07-31T02:14:10.429Z,20.35000038
2022-07-31T02:15:08.787Z,20.35000038
2022-07-31T02:16:10.435Z,20.30999947
2022-07-31T02:17:05.588Z,20.29000092
2022-07-31T02:19:04.775Z,20.28000069
2022-07-31T02:20:05.925Z,20.25
2022-07-31T02:21:03.360Z,20.23999977
2022-07-31T02:22:05.968Z,20.22999954
2022-07-31T02:23:00.506Z,20.23999977
2022-07-31T02:25:00.903Z,20.22999954
2022-07-31T02:26:01.829Z,20.20999908
2022-07-31T02:26:57.448Z,20.20000076
2022-07-31T02:28:01.790Z,20.20000076
2022-07-31T02:30:02.294Z,20.19000053
2022-07-31T02:30:54.949Z,20.19000053
2022-07-31T02:32:03.087Z,20.18000031
2022-07-31T02:32:05.368Z,20.18000031
2022-07-31T02:32:11.575Z,20.18000031
2022-07-31T02:32:53.888Z,20.20000076
2022-07-31T02:33:49.136Z,20.25
2022-07-31T02:34:53.860Z,20.25
2022-07-31T02:35:48.305Z,20.23999977
2022-07-31T02:36:50.061Z,20.21999931
2022-07-31T02:37:50.208Z,20.20999908
2022-07-31T02:39:49.950Z,20.18000031
2022-07-31T02:41:13.810Z,20.14999962
2022-07-31T02:41:59.988Z,20.18000031
2022-07-31T02:42:59.474Z,20.20999908
2022-07-31T02:44:56.557Z,20.19000053
2022-07-31T02:46:08.585Z,20.15999985
2022-07-31T02:47:04.832Z,20.14999962
2022-07-31T02:48:05.095Z,20.14999962
2022-07-31T02:49:01.742Z,20.13999939
2022-07-31T02:50:03.872Z,20.15999985
2022-07-31T02:51:03.345Z,20.18000031
2022-07-31T02:52:03.918Z,20.18000031
2022-07-31T02:52:59.313Z,20.17000008
2022-07-31T02:54:56.425Z,20.14999962
2022-07-31T02:55:58.599Z,20.14999962
2022-07-31T02:56:53.833Z,20.12000084
2022-07-31T02:57:57.302Z,20.12000084
2022-07-31T02:59:54.832Z,20.11000061
2022-07-31T03:00:51.560Z,20.11000061
2022-07-31T03:01:54.589Z,20.10000038
2022-07-31T03:02:49.117Z,20.10000038
2022-07-31T03:03:49.110Z,20.12999916
2022-07-31T03:04:45.363Z,20.12000084
2022-07-31T03:05:44.956Z,20.11000061
2022-07-31T03:06:40.598Z,20.10000038
2022-07-31T03:07:43.670Z,20.09000015
2022-07-31T03:09:36.537Z,20.10000038
2022-07-31T03:10:31.764Z,20.10000038
2022-07-31T03:11:31.808Z,20.07999992
2022-07-31T03:12:33.213Z,20.07999992
2022-07-31T03:13:36.393Z,20.10000038
2022-07-31T03:14:32.883Z,20.07999992
2022-07-31T03:15:32.788Z,20.06999969
2022-07-31T03:16:30.814Z,20.09000015
2022-07-31T03:17:38.028Z,20.09000015
2022-07-31T03:17:40.666Z,20.09000015
2022-07-31T03:17:40.991Z,20.09000015
2022-07-31T03:18:32.707Z,20.13999939
2022-07-31T03:19:28.051Z,20.15999985
2022-07-31T03:20:32.109Z,20.15999985
2022-07-31T03:21:27.684Z,20.15999985
2022-07-31T03:22:25.463Z,20.15999985
2022-07-31T03:25:21.541Z,20.21999931
2022-07-31T03:25:59.504Z,20.28000069
2022-07-31T03:26:59.691Z,20.31999969
2022-07-31T03:27:56.943Z,20.31999969
2022-07-31T03:28:55.127Z,20.29999924
2022-07-31T03:29:49.858Z,20.29000092
2022-07-31T03:30:51.800Z,20.25
2022-07-31T03:32:00.854Z,20.25
2022-07-31T03:33:02.797Z,20.26000023
2022-07-31T03:35:08.753Z,20.25
2022-07-31T03:36:05.607Z,20.22999954
2022-07-31T03:37:16.038Z,20.21999931
2022-07-31T03:39:09.460Z,20.23999977
2022-07-31T03:40:08.637Z,20.22999954
2022-07-31T03:41:06.151Z,20.22999954
2022-07-31T03:42:18.452Z,20.23999977
2022-07-31T03:42:18.947Z,20.23999977
2022-07-31T03:43:11.144Z,20.26000023
2022-07-31T03:44:04.564Z,20.32999992
2022-07-31T03:45:06.474Z,20.35000038
2022-07-31T03:45:59.277Z,20.34000015
2022-07-31T03:47:05.241Z,20.35000038
2022-07-31T03:47:59.425Z,20.35000038
2022-07-31T03:48:58.966Z,20.36000061
2022-07-31T03:50:06.707Z,20.35000038
2022-07-31T03:51:06.249Z,20.34000015
2022-07-31T03:52:06.386Z,20.31999969
2022-07-31T03:52:11.978Z,20.31999969
2022-07-31T03:53:04.528Z,20.34000015
2022-07-31T03:55:03.536Z,20.37000084
2022-07-31T03:55:56.487Z,20.36000061
2022-07-31T03:56:55.839Z,20.37999916
2022-07-31T03:57:56.260Z,20.37000084
2022-07-31T03:59:55.939Z,20.36000061
2022-07-31T04:00:49.137Z,20.37000084
2022-07-31T04:02:00.305Z,20.37000084
2022-07-31T04:03:50.754Z,20.46999931
2022-07-31T04:04:31.758Z,20.52000046
2022-07-31T04:05:33.999Z,20.55999947
2022-07-31T04:06:36.798Z,20.54999924
2022-07-31T04:07:33.189Z,20.53000069
2022-07-31T04:08:34.081Z,20.53000069
2022-07-31T04:09:30.586Z,20.51000023
2022-07-31T04:10:37.191Z,20.48999977
2022-07-31T04:11:38.321Z,20.47999954
2022-07-31T04:12:38.389Z,20.46999931
2022-07-31T04:13:40.339Z,20.48999977
2022-07-31T04:14:43.119Z,20.46999931
2022-07-31T04:15:39.384Z,20.45000076
2022-07-31T04:16:44.104Z,20.45999908
2022-07-31T04:17:38.581Z,20.46999931
2022-07-31T04:19:43.652Z,20.47999954
2022-07-31T04:20:47.161Z,20.48999977
2022-07-31T04:21:45.678Z,20.47999954
2022-07-31T04:22:51.711Z,20.46999931
2022-07-31T04:23:52.967Z,20.5
2022-07-31T04:24:52.142Z,20.51000023
2022-07-31T04:25:51.380Z,20.51000023
2022-07-31T04:26:52.745Z,20.5
2022-07-31T04:27:50.513Z,20.5
2022-07-31T04:29:48.739Z,20.52000046
2022-07-31T04:30:52.194Z,20.53000069
2022-07-31T04:31:52.466Z,20.54000092
2022-07-31T04:32:56.557Z,20.53000069
2022-07-31T04:34:54.510Z,20.55999947
2022-07-31T04:35:52.418Z,20.57999992
2022-07-31T04:36:53.531Z,20.59000015
2022-07-31T04:37:50.613Z,20.59000015
2022-07-31T04:40:00.549Z,20.67000008
2022-07-31T04:40:41.934Z,20.70000076
2022-07-31T04:41:41.199Z,20.73999977
2022-07-31T04:42:42.679Z,20.73999977
2022-07-31T04:44:43.746Z,20.69000053
2022-07-31T04:45:45.743Z,20.68000031
2022-07-31T04:46:42.108Z,20.67000008
2022-07-31T04:47:43.650Z,20.63999939
2022-07-31T04:49:51.346Z,20.62999916
2022-07-31T04:50:45.998Z,20.62999916
2022-07-31T04:51:47.555Z,20.62999916
2022-07-31T04:52:51.010Z,20.62000084
2022-07-31T04:54:49.119Z,20.61000061
2022-07-31T04:55:50.331Z,20.60000038
2022-07-31T04:56:47.170Z,20.60000038
2022-07-31T04:57:50.934Z,20.60000038
2022-07-31T04:58:47.260Z,20.61000061
2022-07-31T04:59:59.433Z,20.61000061
2022-07-31T05:00:00.381Z,20.61000061
2022-07-31T05:00:01.356Z,20.61000061
2022-07-31T05:00:49.118Z,20.63999939
2022-07-31T05:01:47.119Z,20.67000008
2022-07-31T05:02:49.403Z,20.69000053
2022-07-31T05:04:54.342Z,20.68000031
2022-07-31T05:04:57.199Z,20.68000031
2022-07-31T05:05:49.352Z,20.68000031
2022-07-31T05:06:47.391Z,20.69000053
2022-07-31T05:07:49.566Z,20.70000076
2022-07-31T05:08:48.912Z,20.71999931
2022-07-31T05:09:46.727Z,20.69000053
2022-07-31T05:10:48.448Z,20.70000076
2022-07-31T05:11:45.121Z,20.68000031
2022-07-31T05:12:50.063Z,20.67000008
2022-07-31T05:14:51.893Z,20.67000008
2022-07-31T05:16:23.040Z,20.78000069
2022-07-31T05:19:13.653Z,21.06999969
2022-07-31T05:19:14.530Z,21.06999969
2022-07-31T05:19:52.966Z,21.10000038
2022-07-31T05:20:51.968Z,21.12000084
2022-07-31T05:21:55.627Z,21.11000061
2022-07-31T05:22:50.228Z,21.06999969
2022-07-31T05:24:49.898Z,20.97999954
2022-07-31T05:25:52.024Z,20.94000053
2022-07-31T05:26:50.161Z,20.92000008
2022-07-31T05:27:53.992Z,20.88999939
2022-07-31T05:29:48.290Z,20.87000084
2022-07-31T05:30:50.335Z,20.87000084
2022-07-31T05:31:59.356Z,20.85000038
2022-07-31T05:31:59.523Z,20.85000038
2022-07-31T05:31:59.583Z,20.85000038
2022-07-31T05:32:48.314Z,20.87000084
2022-07-31T05:33:51.114Z,20.88999939
2022-07-31T05:34:48.376Z,20.87000084
2022-07-31T05:35:52.977Z,20.85000038
2022-07-31T05:36:48.351Z,20.84000015
2022-07-31T05:37:54.014Z,20.82999992
2022-07-31T05:39:53.764Z,20.82999992
2022-07-31T05:40:49.913Z,20.80999947
2022-07-31T05:41:47.484Z,20.80999947
2022-07-31T05:42:52.095Z,20.79999924
2022-07-31T05:43:46.354Z,20.80999947
2022-07-31T05:44:50.143Z,20.84000015
2022-07-31T05:45:45.536Z,20.87000084
2022-07-31T05:46:47.019Z,20.88999939
2022-07-31T05:47:43.488Z,20.87000084
2022-07-31T05:48:51.569Z,20.87000084
2022-07-31T05:49:51.033Z,20.84000015
2022-07-31T05:50:47.215Z,20.82999992
2022-07-31T05:51:53.637Z,20.82999992
2022-07-31T05:52:47.443Z,20.82999992
2022-07-31T05:54:45.817Z,20.82999992
2022-07-31T05:55:46.587Z,20.81999969
2022-07-31T05:56:43.006Z,20.81999969
2022-07-31T05:57:45.045Z,20.81999969
2022-07-31T05:58:41.532Z,20.81999969
2022-07-31T05:59:42.715Z,20.82999992
2022-07-31T06:00:40.727Z,20.81999969
2022-07-31T06:02:34.938Z,20.89999962
2022-07-31T06:03:14.856Z,20.95999908
2022-07-31T06:05:11.105Z,21.02000046
2022-07-31T06:06:11.437Z,21.02000046
2022-07-31T06:06:17.042Z,21.02000046
2022-07-31T06:07:13.489Z,21.01000023
2022-07-31T06:08:10.933Z,21
2022-07-31T06:09:12.262Z,21
2022-07-31T06:10:07.959Z,20.98999977
2022-07-31T06:11:07.961Z,20.97999954
2022-07-31T06:12:04.823Z,20.97999954
2022-07-31T06:13:04.675Z,20.96999931
2022-07-31T06:13:59.889Z,20.97999954
2022-07-31T06:15:00.043Z,20.96999931
2022-07-31T06:15:55.764Z,20.95000076
2022-07-31T06:16:58.364Z,20.95000076
2022-07-31T06:17:51.668Z,20.95999908
2022-07-31T06:19:51.225Z,20.95999908
2022-07-31T06:20:53.933Z,20.97999954
2022-07-31T06:21:48.571Z,21.01000023
2022-07-31T06:22:49.806Z,21.04000092
2022-07-31T06:24:49.542Z,21.06999969
2022-07-31T06:25:42.389Z,21.09000015
2022-07-31T06:26:43.594Z,21.12000084
2022-07-31T06:27:38.914Z,21.13999939
2022-07-31T06:29:40.813Z,21.18000031
2022-07-31T06:29:42.320Z,21.18000031
2022-07-31T06:30:39.740Z,21.20000076
2022-07-31T06:31:33.979Z,21.26000023
2022-07-31T06:32:36.624Z,21.29000092
2022-07-31T06:34:30.089Z,21.32999992
2022-07-31T06:35:25.496Z,21.35000038
2022-07-31T06:36:26.238Z,21.34000015
2022-07-31T06:37:22.137Z,21.35000038
2022-07-31T06:38:23.325Z,21.37000084
2022-07-31T06:39:19.708Z,21.40999985
2022-07-31T06:40:22.264Z,21.43000031
2022-07-31T06:41:16.708Z,21.43000031
2022-07-31T06:42:18.361Z,21.44000053
2022-07-31T06:43:11.944Z,21.44000053
2022-07-31T06:45:10.802Z,21.44000053
2022-07-31T06:46:06.239Z,21.43000031
2022-07-31T06:47:43.210Z,21.46999931
2022-07-31T06:48:23.361Z,21.47999954
2022-07-31T06:49:29.477Z,21.52000046
2022-07-31T06:50:24.804Z,21.51000023
2022-07-31T06:51:31.767Z,21.48999977
2022-07-31T06:51:31.939Z,21.48999977
2022-07-31T06:52:23.654Z,21.47999954
2022-07-31T06:53:19.594Z,21.47999954
2022-07-31T06:54:21.358Z,21.47999954
2022-07-31T06:54:26.808Z,21.47999954
2022-07-31T06:55:16.505Z,21.48999977
2022-07-31T06:56:16.275Z,21.47999954
2022-07-31T06:57:11.959Z,21.47999954
2022-07-31T06:58:09.337Z,21.45999908
2022-07-31T07:00:19.647Z,21.43000031
2022-07-31T07:00:19.710Z,21.43000031
2022-07-31T07:00:20.068Z,21.43000031
2022-07-31T07:01:07.546Z,21.46999931
2022-07-31T07:02:10.541Z,21.5
2022-07-31T07:02:18.819Z,21.5
2022-07-31T07:03:15.564Z,21.52000046
2022-07-31T07:05:10.186Z,21.54999924
2022-07-31T07:06:11.132Z,21.52000046
2022-07-31T07:07:07.202Z,21.51000023
2022-07-31T07:08:08.434Z,21.5
2022-07-31T07:09:01.076Z,21.48999977
2022-07-31T07:10:03.378Z,21.48999977
2022-07-31T07:10:57.602Z,21.48999977
2022-07-31T07:11:59.621Z,21.48999977
2022-07-31T07:12:52.362Z,21.48999977
2022-07-31T07:14:48.820Z,21.5
2022-07-31T07:15:50.921Z,21.47999954
2022-07-31T07:16:45.623Z,21.46999931
2022-07-31T07:17:47.829Z,21.45999908
2022-07-31T07:18:42.096Z,21.45999908
2022-07-31T07:19:44.224Z,21.45000076
2022-07-31T07:20:37.887Z,21.45000076
2022-07-31T07:21:48.205Z,21.42000008
2022-07-31T07:22:40.689Z,21.40999985
2022-07-31T07:23:42.897Z,21.40999985
2022-07-31T07:24:35.187Z,21.38999939
2022-07-31T07:26:20.094Z,21.45999908
2022-07-31T07:26:59.183Z,21.5
2022-07-31T07:27:57.308Z,21.54000092
2022-07-31T07:28:55.774Z,21.53000069
2022-07-31T07:29:50.973Z,21.5
2022-07-31T07:30:50.477Z,21.46999931
2022-07-31T07:31:46.884Z,21.44000053
2022-07-31T07:32:47.288Z,21.42000008
2022-07-31T07:34:43.354Z,21.38999939
2022-07-31T07:35:37.814Z,21.38999939
2022-07-31T07:36:37.655Z,21.37000084
2022-07-31T07:37:32.215Z,21.36000061
2022-07-31T07:37:38.832Z,21.36000061
2022-07-31T07:38:32.516Z,21.37000084
2022-07-31T07:40:29.933Z,21.40999985
2022-07-31T07:41:22.394Z,21.43000031
2022-07-31T07:42:24.208Z,21.44000053
2022-07-31T07:43:16.947Z,21.43000031
2022-07-31T07:45:12.175Z,21.44000053
2022-07-31T07:46:14.498Z,21.44000053
2022-07-31T07:47:07.085Z,21.45999908
2022-07-31T07:48:10.006Z,21.45999908
2022-07-31T07:50:05.021Z,21.46999931
2022-07-31T07:51:01.235Z,21.45999908
2022-07-31T07:52:01.679Z,21.46999931
2022-07-31T07:52:56.414Z,21.46999931
2022-07-31T07:54:55.856Z,21.47999954
2022-07-31T07:55:48.295Z,21.47999954
2022-07-31T07:56:46.508Z,21.48999977
2022-07-31T07:57:47.581Z,21.5
2022-07-31T07:58:39.964Z,21.5
2022-07-31T07:59:39.704Z,21.51000023
2022-07-31T08:00:35.015Z,21.51000023
2022-07-31T08:01:34.354Z,21.51000023
2022-07-31T08:02:30.190Z,21.51000023
2022-07-31T08:03:49.099Z,21.5
2022-07-31T08:03:49.801Z,21.5
2022-07-31T08:03:50.185Z,21.5
2022-07-31T08:04:28.316Z,21.53000069
2022-07-31T08:05:23.125Z,21.56999969
2022-07-31T08:06:20.219Z,21.57999992
2022-07-31T08:07:19.955Z,21.56999969
2022-07-31T08:08:59.135Z,21.59000015
2022-07-31T08:09:39.461Z,21.63999939
2022-07-31T08:10:38.562Z,21.65999985
2022-07-31T08:11:35.158Z,21.63999939
2022-07-31T08:12:35.621Z,21.62000084
2022-07-31T08:13:30.797Z,21.59000015
2022-07-31T08:15:29.569Z,21.55999947
2022-07-31T08:16:24.252Z,21.55999947
2022-07-31T08:17:23.910Z,21.54999924
2022-07-31T08:18:19.169Z,21.52000046
2022-07-31T08:20:12.697Z,21.5
2022-07-31T08:21:09.566Z,21.48999977
2022-07-31T08:22:12.634Z,21.47999954
2022-07-31T08:23:04.748Z,21.47999954
2022-07-31T08:24:59.347Z,21.46999931
2022-07-31T08:25:05.769Z,21.46999931
2022-07-31T08:25:59.109Z,21.47999954
2022-07-31T08:26:54.806Z,21.5
2022-07-31T08:27:54.693Z,21.52000046
2022-07-31T08:29:51.254Z,21.51000023
2022-07-31T08:30:49.406Z,21.5
2022-07-31T08:31:49.531Z,21.51000023
2022-07-31T08:32:44.069Z,21.51000023
2022-07-31T08:33:44.377Z,21.5
2022-07-31T08:34:43.438Z,21.51000023
2022-07-31T08:35:44.860Z,21.5
2022-07-31T08:35:50.794Z,21.5
2022-07-31T08:36:40.231Z,21.51000023
2022-07-31T08:37:51.246Z,21.54999924
2022-07-31T08:37:51.788Z,21.54999924
2022-07-31T08:37:57.591Z,21.54999924
2022-07-31T08:38:35.600Z,21.57999992
2022-07-31T08:40:34.950Z,21.64999962
2022-07-31T08:40:43.037Z,21.64999962
2022-07-31T08:42:29.076Z,21.73999977
2022-07-31T08:44:00.909Z,21.79000092
2022-07-31T08:44:02.807Z,21.79000092
2022-07-31T08:45:10.224Z,21.86000061
2022-07-31T08:46:11.459Z,21.86000061
2022-07-31T08:47:09.546Z,21.82999992
2022-07-31T08:48:07.293Z,21.79999924
2022-07-31T08:50:04.786Z,21.72999954
2022-07-31T08:51:05.534Z,21.71999931
2022-07-31T08:52:02.094Z,21.70000076
2022-07-31T08:53:02.977Z,21.70000076
2022-07-31T08:55:03.805Z,21.65999985
2022-07-31T08:55:58.146Z,21.64999962
2022-07-31T08:56:59.013Z,21.65999985
2022-07-31T08:57:55.426Z,21.64999962
2022-07-31T08:59:52.844Z,21.64999962
2022-07-31T09:00:51.655Z,21.63999939
2022-07-31T09:01:53.375Z,21.63999939
2022-07-31T09:02:49.963Z,21.65999985
2022-07-31T09:04:52.148Z,21.69000053
2022-07-31T09:05:52.275Z,21.72999954
2022-07-31T09:06:46.666Z,21.77000046
2022-07-31T09:07:50.779Z,21.79000092
2022-07-31T09:09:51.846Z,21.82999992
2022-07-31T09:09:52.573Z,21.82999992
2022-07-31T09:10:50.362Z,21.84000015
2022-07-31T09:11:43.563Z,21.87000084
2022-07-31T09:12:49.942Z,21.89999962
2022-07-31T09:14:48.179Z,21.90999985
2022-07-31T09:15:42.545Z,21.92000008
2022-07-31T09:16:44.812Z,21.95000076
2022-07-31T09:17:41.540Z,21.98999977
2022-07-31T09:17:52.519Z,21.98999977
2022-07-31T09:17:54.263Z,21.98999977
2022-07-31T09:19:51.913Z,22.11000061
2022-07-31T09:19:52.956Z,22.11000061
2022-07-31T09:19:53.475Z,22.11000061
2022-07-31T09:21:42.983Z,22.28000069
2022-07-31T09:22:23.884Z,22.31999969
2022-07-31T09:23:22.941Z,22.29999924
2022-07-31T09:25:20.704Z,22.26000023
2022-07-31T09:26:22.746Z,22.21999931
2022-07-31T09:27:19.285Z,22.19000053
2022-07-31T09:28:24.999Z,22.15999985
2022-07-31T09:29:17.255Z,22.13999939
2022-07-31T09:30:19.623Z,22.13999939
2022-07-31T09:31:16.033Z,22.12999916
2022-07-31T09:32:18.332Z,22.11000061
2022-07-31T09:33:14.934Z,22.10000038
2022-07-31T09:34:18.099Z,22.10000038
2022-07-31T09:35:14.531Z,22.07999992
2022-07-31T09:36:16.542Z,22.11000061
2022-07-31T09:37:14.496Z,22.12999916
2022-07-31T09:38:14.671Z,22.13999939
2022-07-31T09:40:12.038Z,22.12000084
2022-07-31T09:41:20.397Z,22.12000084
2022-07-31T09:41:56.636Z,22.12000084
2022-07-31T09:41:56.926Z,22.12000084
2022-07-31T09:42:16.873Z,22.13999939
2022-07-31T09:43:14.935Z,22.19000053
2022-07-31T09:45:12.587Z,22.20000076
2022-07-31T09:46:08.427Z,22.19000053
2022-07-31T09:47:10.300Z,22.17000008
2022-07-31T09:48:06.737Z,22.15999985
2022-07-31T09:50:04.909Z,22.11000061
2022-07-31T09:51:06.048Z,22.10000038
2022-07-31T09:52:02.358Z,22.07999992
2022-07-31T09:53:03.071Z,22.07999992
2022-07-31T09:55:03.123Z,22.04999924
2022-07-31T09:55:15.689Z,22.04999924
2022-07-31T09:56:00.251Z,22.05999947
2022-07-31T09:56:56.820Z,22.09000015
2022-07-31T09:57:57.996Z,22.09000015
2022-07-31T09:58:54.377Z,22.06999969
2022-07-31T10:00:00.395Z,22.06999969
2022-07-31T10:00:54.674Z,22.06999969
2022-07-31T10:01:57.716Z,22.04999924
2022-07-31T10:02:52.101Z,22.05999947
2022-07-31T10:04:50.283Z,22.03000069
2022-07-31T10:05:54.459Z,22.04999924
2022-07-31T10:06:48.700Z,22.04999924
2022-07-31T10:07:52.241Z,22.04999924
2022-07-31T10:08:45.786Z,22.04999924
2022-07-31T10:10:43.750Z,22.04999924
2022-07-31T10:11:44.508Z,22.04999924
2022-07-31T10:12:41.110Z,22.04000092
2022-07-31T10:14:19.670Z,22.07999992
2022-07-31T10:14:59.002Z,22.12000084
2022-07-31T10:15:57.515Z,22.14999962
2022-07-31T10:16:56.920Z,22.13999939
2022-07-31T10:17:51.612Z,22.12999916
2022-07-31T10:19:47.706Z,22.11000061
2022-07-31T10:20:46.549Z,22.11000061
2022-07-31T10:21:41.884Z,22.12000084
2022-07-31T10:22:41.619Z,22.12000084
2022-07-31T10:23:39.802Z,22.10000038
2022-07-31T10:25:34.031Z,22.11000061
2022-07-31T10:26:59.196Z,22.11000061
2022-07-31T10:27:03.896Z,22.11000061
2022-07-31T10:27:32.030Z,22.13999939
2022-07-31T10:28:27.693Z,22.19000053
2022-07-31T10:29:26.988Z,22.20999908
2022-07-31T10:30:26.077Z,22.21999931
2022-07-31T10:30:28.394Z,22.21999931
2022-07-31T10:31:23.962Z,22.23999977
2022-07-31T10:32:20.763Z,22.25
2022-07-31T10:33:42.413Z,22.23999977
2022-07-31T10:33:43.657Z,22.23999977
2022-07-31T10:33:46.192Z,22.23999977
2022-07-31T10:35:19.910Z,22.29000092
2022-07-31T10:36:12.822Z,22.30999947
2022-07-31T10:37:14.935Z,22.29000092
2022-07-31T10:38:10.365Z,22.29000092
2022-07-31T10:40:05.395Z,22.26000023
2022-07-31T10:41:07.781Z,22.26000023
2022-07-31T10:42:00.770Z,22.27000046
2022-07-31T10:43:03.888Z,22.27000046
2022-07-31T10:43:56.478Z,22.25
2022-07-31T10:44:58.808Z,22.27000046
2022-07-31T10:45:53.063Z,22.27000046
2022-07-31T10:46:52.278Z,22.29000092
2022-07-31T10:47:48.717Z,22.30999947
2022-07-31T10:48:50.382Z,22.31999969
2022-07-31T10:50:45.872Z,22.38999939
2022-07-31T10:51:38.767Z,22.39999962
2022-07-31T10:52:42.372Z,22.44000053
2022-07-31T10:53:50.948Z,22.45000076
2022-07-31T10:53:51.329Z,22.45000076
2022-07-31T10:54:36.528Z,22.48999977
2022-07-31T10:55:32.119Z,22.53000069
2022-07-31T10:56:35.446Z,22.55999947
2022-07-31T10:57:28.568Z,22.59000015
2022-07-31T10:58:31.429Z,22.60000038
2022-07-31T11:00:23.459Z,22.64999962
2022-07-31T11:00:30.031Z,22.64999962
2022-07-31T11:01:25.979Z,22.68000031
2022-07-31T11:02:21.595Z,22.70999908
2022-07-31T11:03:19.549Z,22.75
2022-07-31T11:04:19.794Z,22.70999908
2022-07-31T11:05:15.817Z,22.71999931
2022-07-31T11:06:15.469Z,22.71999931
2022-07-31T11:07:52.569Z,22.78000069
2022-07-31T11:08:32.508Z,22.80999947
2022-07-31T11:09:30.111Z,22.85000038
2022-07-31T11:10:30.221Z,22.86000061
2022-07-31T11:11:26.310Z,22.88999939
2022-07-31T11:12:26.067Z,22.90999985
2022-07-31T11:13:21.512Z,22.94000053
2022-07-31T11:13:33.518Z,22.94000053
2022-07-31T11:13:33.635Z,22.94000053
2022-07-31T11:15:17.788Z,23
2022-07-31T11:16:17.748Z,23.04000092
2022-07-31T11:17:13.963Z,23.04000092
2022-07-31T11:18:24.057Z,23.04000092
2022-07-31T11:18:27.467Z,23.04000092